createdAt,value
2019-03-21T00:00:33.884Z,8.42
2019-03-21T00:01:33.858Z,8.41
2019-03-21T00:02:33.840Z,8.31
2019-03-21T00:03:33.805Z,8.34
2019-03-21T00:04:33.777Z,8.34
2019-03-21T00:05:33.752Z,8.33
2019-03-21T00:06:33.723Z,8.3
2019-03-21T00:07:33.700Z,8.3
2019-03-21T00:08:33.671Z,8.26
2019-03-21T00:09:33.648Z,8.28
2019-03-21T00:10:33.808Z,8.3
2019-03-21T00:11:33.592Z,8.31
2019-03-21T00:12:33.558Z,8.28
2019-03-21T00:13:33.535Z,8.28
2019-03-21T00:14:33.518Z,8.31
2019-03-21T00:15:33.482Z,8.23
2019-03-21T00:16:33.486Z,8.26
2019-03-21T00:17:33.430Z,8.34
2019-03-21T00:18:33.402Z,8.36
2019-03-21T00:19:33.382Z,8.23
2019-03-21T00:20:33.350Z,8.27
2019-03-21T00:21:33.326Z,8.31
2019-03-21T00:22:34.497Z,8.24
2019-03-21T00:23:33.272Z,8.19
2019-03-21T00:24:33.245Z,8.19
2019-03-21T00:25:33.216Z,8.18
2019-03-21T00:26:33.805Z,8.13
2019-03-21T00:27:33.166Z,8.09
2019-03-21T00:28:33.136Z,8.16
2019-03-21T00:29:33.111Z,8.08
2019-03-21T00:30:33.086Z,8.12
2019-03-21T00:31:33.059Z,8.03
2019-03-21T00:32:33.038Z,8.06
2019-03-21T00:33:33.006Z,8.09
2019-03-21T00:34:32.978Z,8.06
2019-03-21T00:35:32.960Z,8.09
2019-03-21T00:36:32.930Z,8.09
2019-03-21T00:37:32.893Z,8.06
2019-03-21T00:38:32.874Z,7.93
2019-03-21T00:39:37.653Z,8
2019-03-21T00:40:32.816Z,8
2019-03-21T00:41:32.795Z,7.97
2019-03-21T00:42:32.763Z,7.94
2019-03-21T00:43:32.737Z,7.97
2019-03-21T00:44:32.706Z,7.95
2019-03-21T00:45:32.697Z,7.97
2019-03-21T00:46:32.653Z,7.97
2019-03-21T00:47:32.634Z,7.98
2019-03-21T00:48:32.601Z,8
2019-03-21T00:49:32.587Z,7.97
2019-03-21T00:50:32.553Z,7.93
2019-03-21T00:51:32.546Z,7.97
2019-03-21T00:52:32.503Z,7.97
2019-03-21T00:53:32.470Z,7.97
2019-03-21T00:54:32.446Z,7.94
2019-03-21T00:55:32.413Z,7.9
2019-03-21T00:56:32.388Z,7.94
2019-03-21T00:57:32.357Z,7.97
2019-03-21T00:58:32.353Z,7.94
2019-03-21T00:59:32.309Z,7.97
2019-03-21T01:00:32.282Z,7.98
2019-03-21T01:01:32.295Z,8.06
2019-03-21T01:02:32.227Z,7.97
2019-03-21T01:03:32.200Z,8
2019-03-21T01:04:32.176Z,7.95
2019-03-21T01:05:32.156Z,7.97
2019-03-21T01:06:32.121Z,7.97
2019-03-21T01:07:32.095Z,7.97
2019-03-21T01:08:32.067Z,8
2019-03-21T01:09:32.037Z,7.95
2019-03-21T01:10:32.014Z,7.97
2019-03-21T01:11:31.986Z,7.91
2019-03-21T01:12:32.377Z,7.97
2019-03-21T01:13:31.928Z,7.94
2019-03-21T01:14:34.826Z,7.97
2019-03-21T01:15:31.873Z,7.95
2019-03-21T01:16:31.851Z,7.97
2019-03-21T01:17:31.827Z,7.93
2019-03-21T01:18:31.849Z,7.95
2019-03-21T01:19:33.304Z,7.93
2019-03-21T01:20:31.745Z,7.9
2019-03-21T01:21:31.724Z,7.9
2019-03-21T01:22:31.693Z,7.97
2019-03-21T01:23:31.656Z,7.87
2019-03-21T01:24:31.635Z,7.94
2019-03-21T01:25:31.606Z,7.9
2019-03-21T01:26:31.584Z,7.98
2019-03-21T01:27:31.553Z,7.95
2019-03-21T01:28:31.534Z,7.95
2019-03-21T01:29:31.503Z,7.93
2019-03-21T01:30:31.470Z,7.97
2019-03-21T01:31:31.449Z,7.98
2019-03-21T01:32:31.423Z,7.98
2019-03-21T01:33:31.389Z,7.94
2019-03-21T01:34:31.366Z,7.94
2019-03-21T01:35:31.341Z,7.97
2019-03-21T01:36:31.306Z,7.94
2019-03-21T01:37:31.279Z,7.9
2019-03-21T01:38:31.252Z,7.87
2019-03-21T01:39:31.223Z,7.9
2019-03-21T01:40:31.194Z,7.82
2019-03-21T01:41:31.173Z,7.85
2019-03-21T01:42:31.158Z,7.85
2019-03-21T01:43:31.117Z,7.82
2019-03-21T01:44:40.461Z,7.87
2019-03-21T01:45:31.066Z,7.77
2019-03-21T01:46:31.037Z,7.73
2019-03-21T01:47:31.017Z,7.73
2019-03-21T01:48:30.984Z,7.63
2019-03-21T01:49:30.953Z,7.77
2019-03-21T01:50:32.126Z,7.66
2019-03-21T01:51:30.904Z,7.79
2019-03-21T01:52:30.870Z,7.63
2019-03-21T01:53:30.842Z,7.7
2019-03-21T01:54:30.815Z,7.69
2019-03-21T01:55:30.801Z,7.67
2019-03-21T01:56:30.770Z,7.67
2019-03-21T01:57:30.735Z,7.48
2019-03-21T01:58:30.709Z,7.48
2019-03-21T01:59:30.677Z,7.56
2019-03-21T02:00:30.655Z,7.53
2019-03-21T02:01:30.628Z,7.54
2019-03-21T02:02:30.597Z,7.5
2019-03-21T02:03:30.569Z,7.51
2019-03-21T02:04:30.559Z,7.47
2019-03-21T02:05:30.517Z,7.43
2019-03-21T02:06:30.487Z,7.48
2019-03-21T02:07:30.460Z,7.48
2019-03-21T02:08:30.433Z,7.32
2019-03-21T02:09:30.171Z,7.5
2019-03-21T02:10:30.384Z,7.43
2019-03-21T02:11:30.349Z,7.36
2019-03-21T02:12:30.326Z,7.39
2019-03-21T02:13:30.302Z,7.36
2019-03-21T02:14:30.269Z,7.36
2019-03-21T02:15:30.241Z,7.35
2019-03-21T02:16:30.217Z,7.29
2019-03-21T02:17:30.192Z,7.29
2019-03-21T02:18:30.167Z,7.33
2019-03-21T02:19:30.131Z,7.21
2019-03-21T02:20:30.107Z,7.2
2019-03-21T02:21:30.076Z,7.15
2019-03-21T02:22:30.047Z,7.14
2019-03-21T02:23:30.018Z,7.24
2019-03-21T02:24:30.000Z,7.21
2019-03-21T02:25:29.964Z,7.1
2019-03-21T02:26:29.942Z,7.13
2019-03-21T02:27:29.983Z,7.14
2019-03-21T02:28:29.884Z,7.1
2019-03-21T02:29:29.854Z,7.03
2019-03-21T02:30:29.834Z,7.07
2019-03-21T02:31:29.962Z,6.97
2019-03-21T02:32:29.790Z,7
2019-03-21T02:33:29.767Z,6.95
2019-03-21T02:34:29.717Z,6.93
2019-03-21T02:35:33.388Z,6.96
2019-03-21T02:36:29.891Z,6.92
2019-03-21T02:37:29.636Z,6.88
2019-03-21T02:38:29.610Z,6.95
2019-03-21T02:39:29.586Z,6.89
2019-03-21T02:40:29.552Z,6.87
2019-03-21T02:41:30.577Z,6.81
2019-03-21T02:42:29.505Z,6.85
2019-03-21T02:43:29.535Z,6.75
2019-03-21T02:44:29.466Z,6.81
2019-03-21T02:45:29.177Z,6.79
2019-03-21T02:46:29.402Z,6.79
2019-03-21T02:47:29.365Z,6.77
2019-03-21T02:48:29.330Z,6.78
2019-03-21T02:49:29.319Z,6.74
2019-03-21T02:50:29.277Z,6.74
2019-03-21T02:51:29.258Z,6.72
2019-03-21T02:52:29.221Z,6.7
2019-03-21T02:53:29.218Z,6.77
2019-03-21T02:54:29.200Z,6.7
2019-03-21T02:55:29.141Z,6.67
2019-03-21T02:56:29.116Z,6.72
2019-03-21T02:57:29.079Z,6.66
2019-03-21T02:58:29.063Z,6.7
2019-03-21T02:59:29.034Z,6.67
2019-03-21T03:00:29.000Z,6.74
2019-03-21T03:01:29.020Z,6.75
2019-03-21T03:02:28.951Z,6.77
2019-03-21T03:03:28.920Z,6.72
2019-03-21T03:04:28.911Z,6.74
2019-03-21T03:05:28.864Z,6.79
2019-03-21T03:06:28.918Z,6.89
2019-03-21T03:07:28.835Z,6.77
2019-03-21T03:08:28.787Z,6.78
2019-03-21T03:09:28.755Z,6.79
2019-03-21T03:10:28.720Z,6.77
2019-03-21T03:11:28.706Z,6.79
2019-03-21T03:12:28.717Z,6.82
2019-03-21T03:13:28.686Z,6.82
2019-03-21T03:14:28.616Z,6.87
2019-03-21T03:15:28.582Z,6.88
2019-03-21T03:16:28.581Z,6.93
2019-03-21T03:17:28.524Z,6.89
2019-03-21T03:18:28.509Z,6.87
2019-03-21T03:19:28.472Z,6.88
2019-03-21T03:20:28.438Z,6.82
2019-03-21T03:21:28.439Z,6.88
2019-03-21T03:22:28.391Z,6.78
2019-03-21T03:23:28.501Z,6.74
2019-03-21T03:24:28.333Z,6.81
2019-03-21T03:25:28.346Z,6.84
2019-03-21T03:26:28.307Z,6.77
2019-03-21T03:27:28.243Z,6.75
2019-03-21T03:28:28.295Z,6.78
2019-03-21T03:29:28.187Z,6.78
2019-03-21T03:30:28.210Z,6.74
2019-03-21T03:31:28.181Z,6.72
2019-03-21T03:32:27.886Z,6.64
2019-03-21T03:33:28.155Z,6.66
2019-03-21T03:34:28.065Z,6.62
2019-03-21T03:35:28.023Z,6.62
2019-03-21T03:36:28.042Z,6.66
2019-03-21T03:37:27.968Z,6.69
2019-03-21T03:38:27.970Z,6.6
2019-03-21T03:39:27.930Z,6.63
2019-03-21T03:40:27.896Z,6.67
2019-03-21T03:41:27.854Z,6.67
2019-03-21T03:42:27.594Z,6.63
2019-03-21T03:43:27.836Z,6.64
2019-03-21T03:44:27.777Z,6.63
2019-03-21T03:45:42.137Z,6.59
2019-03-21T03:46:27.790Z,6.57
2019-03-21T03:47:27.459Z,6.59
2019-03-21T03:48:27.658Z,6.64
2019-03-21T03:49:27.642Z,6.67
2019-03-21T03:50:27.603Z,6.67
2019-03-21T03:51:27.619Z,6.59
2019-03-21T03:52:27.322Z,6.63
2019-03-21T03:53:27.292Z,6.66
2019-03-21T03:54:27.503Z,6.69
2019-03-21T03:55:27.466Z,6.62
2019-03-21T03:56:27.435Z,6.64
2019-03-21T03:57:27.172Z,6.62
2019-03-21T03:58:27.388Z,6.54
2019-03-21T03:59:27.352Z,6.66
2019-03-21T04:00:27.328Z,6.62
2019-03-21T04:01:27.296Z,6.62
2019-03-21T04:02:27.275Z,6.67
2019-03-21T04:03:27.245Z,6.6
2019-03-21T04:04:27.208Z,6.64
2019-03-21T04:05:27.211Z,6.59
2019-03-21T04:06:27.183Z,6.62
2019-03-21T04:07:27.129Z,6.69
2019-03-21T04:08:27.115Z,6.66
2019-03-21T04:09:27.077Z,6.72
2019-03-21T04:10:27.037Z,6.66
2019-03-21T04:11:27.028Z,6.63
2019-03-21T04:12:27.165Z,6.62
2019-03-21T04:13:26.966Z,6.59
2019-03-21T04:14:26.935Z,6.67
2019-03-21T04:15:26.935Z,6.52
2019-03-21T04:16:26.886Z,6.59
2019-03-21T04:17:26.842Z,6.69
2019-03-21T04:18:26.814Z,6.62
2019-03-21T04:19:26.794Z,6.59
2019-03-21T04:20:26.765Z,6.52
2019-03-21T04:21:26.507Z,6.54
2019-03-21T04:22:26.697Z,6.52
2019-03-21T04:23:26.687Z,6.49
2019-03-21T04:24:26.665Z,6.49
2019-03-21T04:25:26.626Z,6.52
2019-03-21T04:26:26.608Z,6.44
2019-03-21T04:27:26.581Z,6.46
2019-03-21T04:28:26.610Z,6.49
2019-03-21T04:29:26.508Z,6.42
2019-03-21T04:30:26.497Z,6.44
2019-03-21T04:31:26.448Z,6.49
2019-03-21T04:32:26.425Z,6.49
2019-03-21T04:33:27.816Z,6.54
2019-03-21T04:34:26.372Z,6.48
2019-03-21T04:35:26.385Z,6.51
2019-03-21T04:36:26.306Z,6.54
2019-03-21T04:37:26.285Z,6.48
2019-03-21T04:38:26.253Z,6.52
2019-03-21T04:39:26.225Z,6.49
2019-03-21T04:40:25.956Z,6.49
2019-03-21T04:41:26.165Z,6.45
2019-03-21T04:42:26.139Z,6.51
2019-03-21T04:43:26.108Z,6.45
2019-03-21T04:44:26.081Z,6.51
2019-03-21T04:45:26.056Z,6.48
2019-03-21T04:46:26.031Z,6.51
2019-03-21T04:47:25.995Z,6.51
2019-03-21T04:48:25.966Z,6.49
2019-03-21T04:49:25.998Z,6.49
2019-03-21T04:50:25.922Z,6.48
2019-03-21T04:51:25.882Z,6.51
2019-03-21T04:52:25.855Z,6.48
2019-03-21T04:53:25.827Z,6.45
2019-03-21T04:54:25.804Z,6.42
2019-03-21T04:55:25.770Z,6.45
2019-03-21T04:56:25.742Z,6.45
2019-03-21T04:57:25.714Z,6.45
2019-03-21T04:58:25.689Z,6.41
2019-03-21T04:59:25.670Z,6.44
2019-03-21T05:00:25.633Z,6.3
2019-03-21T05:01:25.602Z,6.42
2019-03-21T05:02:25.582Z,6.36
2019-03-21T05:03:25.563Z,6.41
2019-03-21T05:04:25.279Z,6.46
2019-03-21T05:05:25.489Z,6.48
2019-03-21T05:06:25.470Z,6.46
2019-03-21T05:07:25.436Z,6.44
2019-03-21T05:08:25.404Z,6.54
2019-03-21T05:09:25.385Z,6.54
2019-03-21T05:10:25.351Z,6.52
2019-03-21T05:11:25.322Z,6.52
2019-03-21T05:12:25.055Z,6.49
2019-03-21T05:13:25.265Z,6.46
2019-03-21T05:14:25.232Z,6.44
2019-03-21T05:15:25.207Z,6.49
2019-03-21T05:16:25.206Z,6.48
2019-03-21T05:17:26.354Z,6.51
2019-03-21T05:18:25.121Z,6.45
2019-03-21T05:19:25.111Z,6.51
2019-03-21T05:20:25.068Z,6.51
2019-03-21T05:21:25.036Z,6.49
2019-03-21T05:22:25.113Z,6.44
2019-03-21T05:23:24.979Z,6.51
2019-03-21T05:24:24.954Z,6.51
2019-03-21T05:25:24.921Z,6.48
2019-03-21T05:26:24.897Z,6.46
2019-03-21T05:27:24.879Z,6.42
2019-03-21T05:28:24.836Z,6.48
2019-03-21T05:29:24.821Z,6.42
2019-03-21T05:30:24.786Z,6.42
2019-03-21T05:31:24.762Z,6.36
2019-03-21T05:32:24.728Z,6.41
2019-03-21T05:33:24.699Z,6.36
2019-03-21T05:34:25.518Z,6.44
2019-03-21T05:35:24.646Z,6.44
2019-03-21T05:36:24.624Z,6.44
2019-03-21T05:37:24.590Z,6.46
2019-03-21T05:38:24.335Z,6.44
2019-03-21T05:39:24.540Z,6.45
2019-03-21T05:40:24.503Z,6.44
2019-03-21T05:41:24.492Z,6.44
2019-03-21T05:42:24.453Z,6.39
2019-03-21T05:43:24.428Z,6.39
2019-03-21T05:44:24.182Z,6.46
2019-03-21T05:45:24.370Z,6.39
2019-03-21T05:46:31.331Z,6.36
2019-03-21T05:47:24.318Z,6.41
2019-03-21T05:48:24.287Z,6.42
2019-03-21T05:49:24.266Z,6.41
2019-03-21T05:50:24.234Z,6.51
2019-03-21T05:51:24.222Z,6.46
2019-03-21T05:52:24.179Z,6.51
2019-03-21T05:53:24.183Z,6.52
2019-03-21T05:54:24.158Z,6.54
2019-03-21T05:55:26.570Z,6.59
2019-03-21T05:56:24.071Z,6.59
2019-03-21T05:57:24.040Z,6.49
2019-03-21T05:58:24.018Z,6.62
2019-03-21T05:59:23.989Z,6.67
2019-03-21T06:00:23.958Z,6.72
2019-03-21T06:01:23.940Z,6.67
2019-03-21T06:02:23.905Z,6.64
2019-03-21T06:03:23.944Z,6.69
2019-03-21T06:04:23.858Z,6.72
2019-03-21T06:05:23.830Z,6.79
2019-03-21T06:06:23.802Z,6.82
2019-03-21T06:07:23.768Z,6.75
2019-03-21T06:08:23.750Z,6.88
2019-03-21T06:09:23.720Z,6.84
2019-03-21T06:10:23.695Z,6.84
2019-03-21T06:11:24.400Z,6.84
2019-03-21T06:12:24.833Z,6.92
2019-03-21T06:13:24.814Z,6.97
2019-03-21T06:14:23.591Z,7.02
2019-03-21T06:15:23.557Z,6.92
2019-03-21T06:16:23.532Z,7.02
2019-03-21T06:17:23.503Z,6.99
2019-03-21T06:18:23.478Z,7.05
2019-03-21T06:19:23.965Z,7.05
2019-03-21T06:20:24.307Z,7.13
2019-03-21T06:21:23.739Z,7.13
2019-03-21T06:22:23.836Z,7.11
2019-03-21T06:23:23.459Z,7.13
2019-03-21T06:24:23.516Z,7.17
2019-03-21T06:25:25.225Z,7.25
2019-03-21T06:26:24.204Z,7.24
2019-03-21T06:27:23.241Z,7.31
2019-03-21T06:28:23.568Z,7.29
2019-03-21T06:29:23.192Z,7.28
2019-03-21T06:30:23.161Z,7.25
2019-03-21T06:31:23.133Z,7.32
2019-03-21T06:32:23.107Z,7.33
2019-03-21T06:33:23.082Z,7.32
2019-03-21T06:34:23.054Z,7.31
2019-03-21T06:35:23.033Z,7.33
2019-03-21T06:36:23.006Z,7.33
2019-03-21T06:37:22.974Z,7.38
2019-03-21T06:38:22.947Z,7.4
2019-03-21T06:39:22.925Z,7.42
2019-03-21T06:40:22.672Z,7.4
2019-03-21T06:41:22.638Z,7.47
2019-03-21T06:42:22.622Z,7.47
2019-03-21T06:43:23.223Z,7.45
2019-03-21T06:44:23.795Z,7.53
2019-03-21T06:45:23.374Z,7.51
2019-03-21T06:46:22.816Z,7.5
2019-03-21T06:47:22.477Z,7.6
2019-03-21T06:48:22.685Z,7.58
2019-03-21T06:49:22.662Z,7.69
2019-03-21T06:50:22.636Z,7.75
2019-03-21T06:51:22.605Z,7.82
2019-03-21T06:52:22.584Z,7.88
2019-03-21T06:53:22.563Z,7.82
2019-03-21T06:54:22.536Z,7.85
2019-03-21T06:55:22.502Z,7.91
2019-03-21T06:56:22.477Z,7.95
2019-03-21T06:57:22.460Z,8.01
2019-03-21T06:58:22.431Z,8.01
2019-03-21T06:59:22.403Z,8.08
2019-03-21T07:00:24.757Z,8.05
2019-03-21T07:01:22.351Z,8.1
2019-03-21T07:02:22.326Z,8.19
2019-03-21T07:03:22.302Z,8.18
2019-03-21T07:04:22.275Z,8.28
2019-03-21T07:05:22.252Z,8.3
2019-03-21T07:06:22.376Z,8.34
2019-03-21T07:07:22.627Z,8.41
2019-03-21T07:08:22.577Z,8.38
2019-03-21T07:09:22.529Z,8.51
2019-03-21T07:10:22.120Z,8.46
2019-03-21T07:11:22.101Z,8.61
2019-03-21T07:12:22.071Z,8.58
2019-03-21T07:13:22.036Z,8.64
2019-03-21T07:14:22.015Z,8.73
2019-03-21T07:15:21.991Z,8.64
2019-03-21T07:16:22.018Z,8.76
2019-03-21T07:17:22.929Z,8.81
2019-03-21T07:18:21.915Z,8.82
2019-03-21T07:19:21.893Z,8.89
2019-03-21T07:20:21.864Z,8.91
2019-03-21T07:21:22.095Z,9.03
2019-03-21T07:22:21.819Z,8.97
2019-03-21T07:23:21.785Z,9.04
2019-03-21T07:24:21.790Z,9.03
2019-03-21T07:25:21.734Z,9.06
2019-03-21T07:26:22.547Z,9.14
2019-03-21T07:27:23.459Z,9.18
2019-03-21T07:28:23.094Z,9.14
2019-03-21T07:29:23.726Z,9.21
2019-03-21T07:30:22.749Z,9.19
2019-03-21T07:31:22.518Z,9.25
2019-03-21T07:32:33.019Z,9.25
2019-03-21T07:33:21.538Z,9.32
2019-03-21T07:34:21.518Z,9.34
2019-03-21T07:35:21.489Z,9.37
2019-03-21T07:36:21.462Z,9.37
2019-03-21T07:37:21.278Z,9.37
2019-03-21T07:38:21.421Z,9.48
2019-03-21T07:39:21.396Z,9.44
2019-03-21T07:40:21.375Z,9.48
2019-03-21T07:41:21.354Z,9.48
2019-03-21T07:42:21.456Z,9.46
2019-03-21T07:43:22.367Z,9.61
2019-03-21T07:44:21.269Z,9.54
2019-03-21T07:45:22.243Z,9.68
2019-03-21T07:46:21.252Z,9.72
2019-03-21T07:47:21.200Z,9.69
2019-03-21T07:48:21.290Z,9.76
2019-03-21T07:49:21.152Z,9.72
2019-03-21T07:50:20.890Z,9.82
2019-03-21T07:51:20.888Z,9.89
2019-03-21T07:52:21.087Z,9.92
2019-03-21T07:53:22.083Z,9.94
2019-03-21T07:54:21.032Z,9.95
2019-03-21T07:55:21.012Z,9.97
2019-03-21T07:56:20.987Z,10.04
2019-03-21T07:57:20.961Z,10.04
2019-03-21T07:58:20.931Z,10.05
2019-03-21T07:59:20.963Z,10.15
2019-03-21T08:00:20.880Z,10.15
2019-03-21T08:01:20.857Z,10.28
2019-03-21T08:02:20.712Z,10.26
2019-03-21T08:03:20.816Z,10.35
2019-03-21T08:04:20.789Z,10.37
2019-03-21T08:05:20.524Z,10.34
2019-03-21T08:06:20.743Z,10.42
2019-03-21T08:07:20.718Z,10.42
2019-03-21T08:08:20.688Z,10.54
2019-03-21T08:09:20.670Z,10.61
2019-03-21T08:10:20.542Z,10.56
2019-03-21T08:11:20.566Z,10.56
2019-03-21T08:12:20.781Z,10.72
2019-03-21T08:13:20.569Z,10.81
2019-03-21T08:14:20.575Z,10.81
2019-03-21T08:15:20.541Z,10.86
2019-03-21T08:16:20.713Z,10.84
2019-03-21T08:17:20.362Z,10.94
2019-03-21T08:18:20.979Z,10.92
2019-03-21T08:19:21.779Z,11.07
2019-03-21T08:20:22.141Z,11.12
2019-03-21T08:21:22.356Z,11.1
2019-03-21T08:22:21.490Z,11.17
2019-03-21T08:23:21.332Z,11.14
2019-03-21T08:24:20.954Z,11.17
2019-03-21T08:25:20.528Z,11.25
2019-03-21T08:26:21.859Z,11.29
2019-03-21T08:27:20.515Z,11.36
2019-03-21T08:28:20.245Z,11.37
2019-03-21T08:29:20.197Z,11.3
2019-03-21T08:30:20.177Z,11.36
2019-03-21T08:31:20.158Z,11.44
2019-03-21T08:32:20.127Z,11.44
2019-03-21T08:33:20.498Z,11.44
2019-03-21T08:34:20.082Z,11.48
2019-03-21T08:35:20.064Z,11.51
2019-03-21T08:36:20.050Z,11.59
2019-03-21T08:37:20.018Z,11.52
2019-03-21T08:38:20.369Z,11.59
2019-03-21T08:39:19.970Z,11.59
2019-03-21T08:40:19.947Z,11.69
2019-03-21T08:41:19.924Z,11.7
2019-03-21T08:42:19.903Z,11.77
2019-03-21T08:43:19.945Z,11.78
2019-03-21T08:44:19.858Z,11.87
2019-03-21T08:45:19.827Z,11.95
2019-03-21T08:46:19.824Z,11.91
2019-03-21T08:47:19.789Z,11.9
2019-03-21T08:48:19.767Z,11.97
2019-03-21T08:49:19.741Z,11.99
2019-03-21T08:50:19.788Z,12.07
2019-03-21T08:51:19.506Z,12.04
2019-03-21T08:52:19.689Z,12.07
2019-03-21T08:53:19.647Z,12.15
2019-03-21T08:54:19.623Z,12.15
2019-03-21T08:55:19.602Z,12.27
2019-03-21T08:56:19.616Z,12.18
2019-03-21T08:57:19.562Z,12.29
2019-03-21T08:58:19.536Z,12.25
2019-03-21T08:59:19.513Z,12.24
2019-03-21T09:00:19.487Z,12.31
2019-03-21T09:01:19.470Z,12.32
2019-03-21T09:02:19.256Z,12.46
2019-03-21T09:03:19.419Z,12.5
2019-03-21T09:04:19.395Z,12.5
2019-03-21T09:05:19.384Z,12.43
2019-03-21T09:06:19.349Z,12.45
2019-03-21T09:07:19.094Z,12.46
2019-03-21T09:08:19.309Z,12.5
2019-03-21T09:09:19.277Z,12.49
2019-03-21T09:10:19.280Z,12.5
2019-03-21T09:11:19.236Z,12.54
2019-03-21T09:12:19.212Z,12.64
2019-03-21T09:13:19.188Z,12.73
2019-03-21T09:14:19.197Z,12.78
2019-03-21T09:15:19.141Z,12.76
2019-03-21T09:16:19.483Z,12.9
2019-03-21T09:17:19.117Z,12.85
2019-03-21T09:18:19.075Z,12.85
2019-03-21T09:19:19.058Z,12.98
2019-03-21T09:20:21.344Z,12.95
2019-03-21T09:21:24.644Z,13.05
2019-03-21T09:22:20.859Z,13.01
2019-03-21T09:23:18.961Z,13.01
2019-03-21T09:24:18.934Z,13.19
2019-03-21T09:25:18.950Z,13.2
2019-03-21T09:26:18.891Z,13.23
2019-03-21T09:27:18.869Z,13.35
2019-03-21T09:28:19.167Z,13.37
2019-03-21T09:29:18.820Z,13.46
2019-03-21T09:30:18.814Z,13.42
2019-03-21T09:31:18.792Z,13.46
2019-03-21T09:32:19.003Z,13.56
2019-03-21T09:33:18.749Z,13.6
2019-03-21T09:34:18.713Z,13.74
2019-03-21T09:35:18.698Z,13.71
2019-03-21T09:36:18.677Z,13.67
2019-03-21T09:37:18.653Z,13.7
2019-03-21T09:38:18.634Z,13.7
2019-03-21T09:39:18.608Z,13.79
2019-03-21T09:40:18.588Z,13.83
2019-03-21T09:41:18.565Z,13.79
2019-03-21T09:42:18.914Z,13.89
2019-03-21T09:43:18.522Z,13.86
2019-03-21T09:44:18.505Z,13.86
2019-03-21T09:45:18.476Z,13.87
2019-03-21T09:46:18.464Z,13.97
2019-03-21T09:47:18.199Z,13.96
2019-03-21T09:48:18.422Z,13.95
2019-03-21T09:49:18.403Z,14
2019-03-21T09:50:18.373Z,13.96
2019-03-21T09:51:18.355Z,13.93
2019-03-21T09:52:18.342Z,13.96
2019-03-21T09:53:18.327Z,14
2019-03-21T09:54:18.290Z,13.97
2019-03-21T09:55:18.268Z,13.99
2019-03-21T09:56:18.247Z,13.87
2019-03-21T09:57:18.225Z,14
2019-03-21T09:58:18.210Z,13.93
2019-03-21T09:59:18.184Z,13.9
2019-03-21T10:00:18.161Z,13.97
2019-03-21T10:01:18.141Z,14
2019-03-21T10:02:18.119Z,14
2019-03-21T10:03:18.118Z,14.11
2019-03-21T10:04:18.076Z,14.14
2019-03-21T10:05:18.051Z,14.15
2019-03-21T10:06:18.031Z,14.12
2019-03-21T10:07:18.013Z,14.22
2019-03-21T10:08:18.020Z,14.26
2019-03-21T10:09:17.971Z,14.36
2019-03-21T10:10:17.950Z,14.36
2019-03-21T10:11:17.695Z,14.35
2019-03-21T10:12:18.105Z,14.37
2019-03-21T10:13:17.880Z,14.47
2019-03-21T10:14:17.864Z,14.51
2019-03-21T10:15:17.708Z,14.48
2019-03-21T10:16:17.812Z,14.59
2019-03-21T10:17:17.799Z,14.65
2019-03-21T10:18:17.778Z,14.63
2019-03-21T10:19:17.752Z,14.6
2019-03-21T10:20:17.832Z,14.66
2019-03-21T10:21:17.710Z,14.77
2019-03-21T10:22:17.694Z,14.82
2019-03-21T10:23:18.201Z,14.72
2019-03-21T10:24:17.645Z,14.77
2019-03-21T10:25:17.638Z,14.65
2019-03-21T10:26:18.671Z,14.77
2019-03-21T10:27:18.005Z,14.78
2019-03-21T10:28:18.917Z,14.7
2019-03-21T10:29:18.590Z,14.7
2019-03-21T10:30:18.511Z,14.7
2019-03-21T10:31:19.288Z,14.7
2019-03-21T10:32:20.450Z,14.7
2019-03-21T10:33:18.806Z,14.78
2019-03-21T10:34:19.334Z,14.7
2019-03-21T10:35:18.681Z,14.69
2019-03-21T10:36:19.353Z,14.72
2019-03-21T10:37:18.906Z,14.86
2019-03-21T10:38:19.060Z,14.92
2019-03-21T10:39:18.417Z,14.86
2019-03-21T10:40:18.495Z,14.85
2019-03-21T10:41:18.639Z,14.91
2019-03-21T10:42:17.271Z,14.94
2019-03-21T10:43:17.259Z,14.89
2019-03-21T10:44:17.275Z,14.99
2019-03-21T10:45:17.210Z,15.04
2019-03-21T10:46:17.191Z,15.21
2019-03-21T10:47:17.171Z,15.18
2019-03-21T10:48:17.158Z,15.22
2019-03-21T10:49:17.128Z,15.19
2019-03-21T10:50:17.102Z,15.24
2019-03-21T10:51:18.054Z,15.24
2019-03-21T10:52:17.063Z,15.24
2019-03-21T10:53:17.051Z,15.31
2019-03-21T10:54:17.018Z,15.33
2019-03-21T10:55:17.031Z,15.36
2019-03-21T10:56:16.985Z,15.33
2019-03-21T10:57:16.969Z,15.31
2019-03-21T10:58:16.947Z,15.43
2019-03-21T10:59:16.700Z,15.39
2019-03-21T11:00:16.664Z,15.42
2019-03-21T11:01:16.882Z,15.46
2019-03-21T11:02:17.147Z,15.46
2019-03-21T11:03:16.843Z,15.39
2019-03-21T11:04:16.831Z,15.47
2019-03-21T11:05:16.798Z,15.44
2019-03-21T11:06:16.777Z,15.58
2019-03-21T11:07:16.759Z,15.57
2019-03-21T11:08:16.738Z,15.62
2019-03-21T11:09:16.713Z,15.62
2019-03-21T11:10:16.699Z,15.72
2019-03-21T11:11:16.678Z,15.65
2019-03-21T11:12:16.657Z,15.76
2019-03-21T11:13:17.602Z,15.8
2019-03-21T11:14:16.620Z,15.79
2019-03-21T11:15:16.599Z,15.84
2019-03-21T11:16:16.343Z,15.88
2019-03-21T11:17:16.914Z,15.9
2019-03-21T11:18:16.637Z,15.88
2019-03-21T11:19:16.905Z,15.95
2019-03-21T11:20:16.500Z,15.95
2019-03-21T11:21:16.482Z,15.94
2019-03-21T11:22:16.456Z,16
2019-03-21T11:23:16.440Z,16.01
2019-03-21T11:24:16.423Z,15.95
2019-03-21T11:25:16.407Z,16.05
2019-03-21T11:26:16.381Z,16.08
2019-03-21T11:27:16.359Z,15.97
2019-03-21T11:28:17.736Z,16.02
2019-03-21T11:29:16.327Z,16.1
2019-03-21T11:30:20.626Z,16.05
2019-03-21T11:31:16.042Z,16.1
2019-03-21T11:32:16.259Z,16.15
2019-03-21T11:33:16.246Z,16.23
2019-03-21T11:34:16.225Z,16.28
2019-03-21T11:35:16.385Z,16.36
2019-03-21T11:36:16.189Z,16.33
2019-03-21T11:37:16.166Z,16.46
2019-03-21T11:38:16.151Z,16.42
2019-03-21T11:39:16.130Z,16.41
2019-03-21T11:40:16.119Z,16.35
2019-03-21T11:41:16.097Z,16.36
2019-03-21T11:42:16.127Z,16.39
2019-03-21T11:43:16.267Z,16.33
2019-03-21T11:44:16.075Z,16.16
2019-03-21T11:45:17.511Z,16.24
2019-03-21T11:46:16.016Z,16.1
2019-03-21T11:47:15.989Z,16.16
2019-03-21T11:48:15.731Z,16.16
2019-03-21T11:49:15.958Z,16.05
2019-03-21T11:50:15.961Z,16.04
2019-03-21T11:51:15.945Z,16.12
2019-03-21T11:52:23.089Z,16.21
2019-03-21T11:53:15.870Z,16.28
2019-03-21T11:54:15.834Z,16.36
2019-03-21T11:55:15.844Z,16.31
2019-03-21T11:56:17.957Z,16.36
2019-03-21T11:57:15.791Z,16.42
2019-03-21T11:58:17.612Z,16.56
2019-03-21T11:59:15.960Z,16.64
2019-03-21T12:00:15.720Z,16.71
2019-03-21T12:01:15.697Z,16.66
2019-03-21T12:02:26.473Z,16.64
2019-03-21T12:03:15.661Z,16.61
2019-03-21T12:04:15.642Z,16.69
2019-03-21T12:05:15.639Z,16.75
2019-03-21T12:06:15.618Z,16.93
2019-03-21T12:07:15.581Z,16.87
2019-03-21T12:08:15.557Z,16.94
2019-03-21T12:09:15.545Z,17.09
2019-03-21T12:10:15.527Z,17.16
2019-03-21T12:11:15.513Z,17.31
2019-03-21T12:12:15.484Z,17.31
2019-03-21T12:13:15.468Z,17.38
2019-03-21T12:14:15.449Z,17.29
2019-03-21T12:15:15.429Z,17.16
2019-03-21T12:16:15.413Z,17.08
2019-03-21T12:17:17.605Z,17.04
2019-03-21T12:18:15.376Z,16.96
2019-03-21T12:19:15.453Z,17.06
2019-03-21T12:20:15.351Z,16.93
2019-03-21T12:21:15.318Z,16.97
2019-03-21T12:22:15.299Z,17.04
2019-03-21T12:23:15.276Z,16.94
2019-03-21T12:24:15.268Z,16.91
2019-03-21T12:25:15.242Z,16.9
2019-03-21T12:26:15.220Z,16.89
2019-03-21T12:27:15.202Z,16.84
2019-03-21T12:28:15.187Z,16.81
2019-03-21T12:29:15.166Z,16.91
2019-03-21T12:30:15.146Z,16.94
2019-03-21T12:31:15.132Z,16.93
2019-03-21T12:32:15.109Z,16.9
2019-03-21T12:33:15.098Z,16.91
2019-03-21T12:34:15.073Z,16.93
2019-03-21T12:35:15.062Z,16.91
2019-03-21T12:36:15.031Z,16.94
2019-03-21T12:37:15.018Z,16.89
2019-03-21T12:38:14.995Z,16.93
2019-03-21T12:39:14.976Z,16.91
2019-03-21T12:40:14.958Z,16.99
2019-03-21T12:41:14.944Z,17.04
2019-03-21T12:42:14.949Z,17.16
2019-03-21T12:43:14.903Z,17.16
2019-03-21T12:44:14.893Z,17.15
2019-03-21T12:45:14.865Z,17.08
2019-03-21T12:46:14.851Z,17.04
2019-03-21T12:47:14.830Z,17.04
2019-03-21T12:48:14.612Z,17.08
2019-03-21T12:49:14.790Z,17.06
2019-03-21T12:50:14.775Z,17.05
2019-03-21T12:51:15.436Z,17.19
2019-03-21T12:52:14.762Z,17.19
2019-03-21T12:53:14.745Z,17.16
2019-03-21T12:54:14.698Z,17.22
2019-03-21T12:55:14.685Z,17.16
2019-03-21T12:56:14.660Z,17.23
2019-03-21T12:57:14.643Z,17.15
2019-03-21T12:58:14.636Z,17.08
2019-03-21T12:59:14.604Z,17.02
2019-03-21T13:00:14.589Z,17.01
2019-03-21T13:01:14.572Z,16.96
2019-03-21T13:02:14.549Z,16.93
2019-03-21T13:03:14.530Z,16.96
2019-03-21T13:04:14.518Z,16.97
2019-03-21T13:05:14.491Z,17.06
2019-03-21T13:06:14.473Z,17.04
2019-03-21T13:07:14.948Z,17.08
2019-03-21T13:08:14.434Z,17.04
2019-03-21T13:09:14.419Z,17.04
2019-03-21T13:10:14.631Z,17.11